createdAt,value
2023-02-15T00:00:40.705Z,1025.96
2023-02-15T00:01:40.706Z,1025.98
2023-02-15T00:02:40.710Z,1026.00
2023-02-15T00:03:40.683Z,1026.19
2023-02-15T00:04:40.668Z,1026.18
2023-02-15T00:05:40.649Z,1026.18
2023-02-15T00:06:40.639Z,1025.98
2023-02-15T00:07:40.649Z,1026.18
2023-02-15T00:08:40.611Z,1026.19
2023-02-15T00:09:40.669Z,1026.20
2023-02-15T00:10:40.624Z,1026.18
2023-02-15T00:11:40.680Z,1026.18
2023-02-15T00:12:40.568Z,1026.20
2023-02-15T00:13:40.579Z,1026.00
2023-02-15T00:14:40.552Z,1025.99
2023-02-15T00:15:40.550Z,1025.96
2023-02-15T00:16:40.567Z,1025.95
2023-02-15T00:17:40.521Z,1025.93
2023-02-15T00:18:40.531Z,1025.92
2023-02-15T00:19:40.513Z,1025.88
2023-02-15T00:20:40.814Z,1025.86
2023-02-15T00:21:40.480Z,1025.88
2023-02-15T00:22:40.462Z,1025.87
2023-02-15T00:23:40.457Z,1025.87
2023-02-15T00:24:40.450Z,1025.88
2023-02-15T00:25:40.431Z,1025.87
2023-02-15T00:26:40.425Z,1025.86
2023-02-15T00:27:40.417Z,1025.90
2023-02-15T00:28:40.402Z,1025.91
2023-02-15T00:29:40.436Z,1025.89
2023-02-15T00:30:40.471Z,1025.84
2023-02-15T00:31:40.400Z,1025.83
2023-02-15T00:32:40.349Z,1025.82
2023-02-15T00:33:40.348Z,1025.81
2023-02-15T00:34:40.319Z,1025.77
2023-02-15T00:35:40.320Z,1025.75
2023-02-15T00:36:40.304Z,1025.75
2023-02-15T00:37:40.322Z,1025.58
2023-02-15T00:38:40.289Z,1025.56
2023-02-15T00:39:40.582Z,1025.56
2023-02-15T00:40:40.265Z,1025.54
2023-02-15T00:41:40.258Z,1025.53
2023-02-15T00:42:40.249Z,1025.54
2023-02-15T00:43:40.269Z,1025.53
2023-02-15T00:44:40.203Z,1025.52
2023-02-15T00:45:40.284Z,1025.53
2023-02-15T00:46:40.190Z,1025.51
2023-02-15T00:47:40.182Z,1025.47
2023-02-15T00:48:40.513Z,1025.43
2023-02-15T00:49:40.206Z,1025.43
2023-02-15T00:50:40.168Z,1025.42
2023-02-15T00:51:40.141Z,1025.37
2023-02-15T00:52:40.148Z,1025.34
2023-02-15T00:53:40.490Z,1025.33
2023-02-15T00:54:40.109Z,1025.15
2023-02-15T00:55:40.103Z,1025.13
2023-02-15T00:56:40.080Z,1025.13
2023-02-15T00:57:40.080Z,1025.14
2023-02-15T00:58:40.089Z,1025.09
2023-02-15T00:59:40.049Z,1025.12
2023-02-15T01:00:40.041Z,1025.10
2023-02-15T01:01:40.039Z,1025.08
2023-02-15T01:02:40.019Z,1025.04
2023-02-15T01:03:40.028Z,1025.07
2023-02-15T01:04:40.080Z,1025.10
2023-02-15T01:05:39.998Z,1025.07
2023-02-15T01:06:39.977Z,1025.05
2023-02-15T01:07:39.996Z,1025.02
2023-02-15T01:08:39.953Z,1025.03
2023-02-15T01:09:39.966Z,1025.02
2023-02-15T01:10:39.921Z,1025.00
2023-02-15T01:11:39.912Z,1024.95
2023-02-15T01:12:39.922Z,1024.95
2023-02-15T01:13:39.907Z,1024.96
2023-02-15T01:14:39.893Z,1025.01
2023-02-15T01:15:41.846Z,1025.04
2023-02-15T01:16:39.862Z,1025.03
2023-02-15T01:17:39.853Z,1025.02
2023-02-15T01:18:40.148Z,1024.99
2023-02-15T01:19:39.843Z,1025.00
2023-02-15T01:20:39.829Z,1024.97
2023-02-15T01:21:39.796Z,1024.76
2023-02-15T01:22:46.816Z,1024.76
2023-02-15T01:23:47.110Z,1024.72
2023-02-15T01:24:39.777Z,1024.75
2023-02-15T01:25:46.773Z,1024.73
2023-02-15T01:26:48.073Z,1024.74
2023-02-15T01:27:47.297Z,1024.69
2023-02-15T01:28:39.758Z,1024.66
2023-02-15T01:29:39.710Z,1024.66
2023-02-15T01:30:39.989Z,1024.64
2023-02-15T01:31:39.770Z,1024.63
2023-02-15T01:32:39.692Z,1024.61
2023-02-15T01:33:39.705Z,1024.62
2023-02-15T01:34:39.687Z,1024.63
2023-02-15T01:35:39.647Z,1024.61
2023-02-15T01:36:39.653Z,1024.62
2023-02-15T01:37:39.621Z,1024.62
2023-02-15T01:38:39.633Z,1024.63
2023-02-15T01:39:39.620Z,1024.58
2023-02-15T01:40:39.591Z,1024.57
2023-02-15T01:41:39.569Z,1024.57
2023-02-15T01:42:39.576Z,1024.57
2023-02-15T01:43:39.598Z,1024.39
2023-02-15T01:44:39.560Z,1024.56
2023-02-15T01:45:39.542Z,1024.58
2023-02-15T01:46:39.529Z,1024.38
2023-02-15T01:47:39.618Z,1024.37
2023-02-15T01:48:39.513Z,1024.35
2023-02-15T01:49:39.528Z,1024.35
2023-02-15T01:50:39.517Z,1024.34
2023-02-15T01:51:39.514Z,1024.33
2023-02-15T01:52:39.465Z,1024.28
2023-02-15T01:53:39.464Z,1024.29
2023-02-15T01:54:39.758Z,1024.28
2023-02-15T01:55:39.448Z,1024.29
2023-02-15T01:56:39.416Z,1024.25
2023-02-15T01:57:39.415Z,1024.30
2023-02-15T01:58:39.384Z,1024.27
2023-02-15T01:59:39.386Z,1024.27
2023-02-15T02:00:39.361Z,1024.29
2023-02-15T02:01:39.710Z,1024.32
2023-02-15T02:02:39.410Z,1024.32
2023-02-15T02:03:39.338Z,1024.29
2023-02-15T02:04:39.684Z,1024.29
2023-02-15T02:05:39.297Z,1024.27
2023-02-15T02:06:39.312Z,1024.27
2023-02-15T02:07:39.288Z,1024.24
2023-02-15T02:08:39.281Z,1024.21
2023-02-15T02:09:39.266Z,1024.23
2023-02-15T02:10:39.256Z,1024.02
2023-02-15T02:11:39.234Z,1024.03
2023-02-15T02:12:39.259Z,1024.03
2023-02-15T02:13:39.237Z,1024.05
2023-02-15T02:14:41.066Z,1024.03
2023-02-15T02:15:39.220Z,1024.03
2023-02-15T02:16:39.208Z,1024.04
2023-02-15T02:17:39.165Z,1024.22
2023-02-15T02:18:39.168Z,1024.22
2023-02-15T02:19:39.173Z,1024.03
2023-02-15T02:20:39.151Z,1024.01
2023-02-15T02:21:39.156Z,1023.99
2023-02-15T02:22:39.115Z,1024.00
2023-02-15T02:23:39.114Z,1023.98
2023-02-15T02:24:39.495Z,1023.98
2023-02-15T02:25:39.083Z,1023.94
2023-02-15T02:26:39.091Z,1023.93
2023-02-15T02:27:39.068Z,1023.91
2023-02-15T02:28:39.049Z,1023.92
2023-02-15T02:29:39.038Z,1023.91
2023-02-15T02:30:39.228Z,1023.91
2023-02-15T02:31:39.449Z,1023.91
2023-02-15T02:32:39.006Z,1023.93
2023-02-15T02:33:38.988Z,1023.94
2023-02-15T02:34:38.985Z,1023.93
2023-02-15T02:35:38.993Z,1023.89
2023-02-15T02:36:38.956Z,1023.88
2023-02-15T02:37:38.963Z,1023.87
2023-02-15T02:38:38.948Z,1023.69
2023-02-15T02:39:38.946Z,1023.86
2023-02-15T02:40:38.934Z,1023.86
2023-02-15T02:41:38.919Z,1023.67
2023-02-15T02:42:38.874Z,1023.66
2023-02-15T02:43:38.884Z,1023.63
2023-02-15T02:44:38.875Z,1023.62
2023-02-15T02:45:38.885Z,1023.63
2023-02-15T02:46:38.909Z,1023.60
2023-02-15T02:47:38.833Z,1023.62
2023-02-15T02:48:39.097Z,1023.62
2023-02-15T02:49:38.845Z,1023.61
2023-02-15T02:50:38.795Z,1023.61
2023-02-15T02:51:38.838Z,1023.62
2023-02-15T02:52:38.777Z,1023.62
2023-02-15T02:53:38.785Z,1023.61
2023-02-15T02:54:38.775Z,1023.61
2023-02-15T02:55:38.735Z,1023.61
2023-02-15T02:56:45.797Z,1023.61
2023-02-15T02:57:49.052Z,1023.60
2023-02-15T02:58:46.739Z,1023.58
2023-02-15T02:59:46.059Z,1023.58
2023-02-15T03:00:38.677Z,1023.57
2023-02-15T03:01:39.028Z,1023.58
2023-02-15T03:02:38.693Z,1023.56
2023-02-15T03:03:38.691Z,1023.57
2023-02-15T03:04:38.984Z,1023.58
2023-02-15T03:05:38.660Z,1023.57
2023-02-15T03:06:38.629Z,1023.55
2023-02-15T03:07:38.610Z,1023.55
2023-02-15T03:08:38.602Z,1023.58
2023-02-15T03:09:38.867Z,1023.56
2023-02-15T03:10:38.586Z,1023.58
2023-02-15T03:11:38.565Z,1023.59
2023-02-15T03:12:38.595Z,1023.59
2023-02-15T03:13:38.541Z,1023.56
2023-02-15T03:14:38.559Z,1023.55
2023-02-15T03:15:38.562Z,1023.58
2023-02-15T03:16:38.568Z,1023.60
2023-02-15T03:17:38.501Z,1023.56
2023-02-15T03:18:38.481Z,1023.53
2023-02-15T03:19:38.509Z,1023.56
2023-02-15T03:20:38.558Z,1023.54
2023-02-15T03:21:38.450Z,1023.54
2023-02-15T03:22:38.431Z,1023.51
2023-02-15T03:23:38.441Z,1023.37
2023-02-15T03:24:38.424Z,1023.33
2023-02-15T03:25:38.421Z,1023.34
2023-02-15T03:26:38.423Z,1023.32
2023-02-15T03:27:38.382Z,1023.34
2023-02-15T03:28:38.386Z,1023.36
2023-02-15T03:29:38.397Z,1023.31
2023-02-15T03:30:38.336Z,1023.32
2023-02-15T03:31:38.401Z,1023.28
2023-02-15T03:32:38.336Z,1023.31
2023-02-15T03:33:38.304Z,1023.29
2023-02-15T03:34:38.312Z,1023.31
2023-02-15T03:35:38.326Z,1023.29
2023-02-15T03:36:38.272Z,1023.32
2023-02-15T03:37:38.263Z,1023.30
2023-02-15T03:38:38.275Z,1023.33
2023-02-15T03:39:38.264Z,1023.31
2023-02-15T03:40:38.238Z,1023.28
2023-02-15T03:41:38.230Z,1023.29
2023-02-15T03:42:38.244Z,1023.30
2023-02-15T03:43:38.206Z,1023.24
2023-02-15T03:44:38.216Z,1023.29
2023-02-15T03:45:38.187Z,1023.28
2023-02-15T03:46:38.227Z,1023.31
2023-02-15T03:47:38.161Z,1023.30
2023-02-15T03:48:38.193Z,1023.27
2023-02-15T03:49:38.139Z,1023.27
2023-02-15T03:50:38.123Z,1023.28
2023-02-15T03:51:38.111Z,1023.29
2023-02-15T03:52:38.113Z,1023.28
2023-02-15T03:53:38.104Z,1023.22
2023-02-15T03:54:38.078Z,1023.28
2023-02-15T03:55:38.068Z,1023.31
2023-02-15T03:56:38.075Z,1023.29
2023-02-15T03:57:38.285Z,1023.28
2023-02-15T03:58:38.028Z,1023.26
2023-02-15T03:59:38.894Z,1023.20
2023-02-15T04:00:38.010Z,1023.22
2023-02-15T04:01:38.010Z,1023.21
2023-02-15T04:02:38.035Z,1023.19
2023-02-15T04:03:37.992Z,1023.23
2023-02-15T04:04:38.025Z,1023.18
2023-02-15T04:05:37.961Z,1023.15
2023-02-15T04:06:37.951Z,1023.15
2023-02-15T04:07:37.930Z,1023.04
2023-02-15T04:08:37.961Z,1023.05
2023-02-15T04:09:37.925Z,1023.03
2023-02-15T04:10:37.919Z,1023.17
2023-02-15T04:11:37.874Z,1023.20
2023-02-15T04:12:37.866Z,1023.04
2023-02-15T04:13:37.888Z,1023.02
2023-02-15T04:14:37.883Z,1023.04
2023-02-15T04:15:37.841Z,1023.03
2023-02-15T04:16:37.887Z,1023.02
2023-02-15T04:17:37.802Z,1022.98
2023-02-15T04:18:37.797Z,1023.00
2023-02-15T04:19:37.798Z,1022.97
2023-02-15T04:20:37.779Z,1022.97
2023-02-15T04:21:37.763Z,1022.95
2023-02-15T04:22:37.760Z,1022.97
2023-02-15T04:23:37.761Z,1022.91
2023-02-15T04:24:37.743Z,1022.90
2023-02-15T04:25:37.733Z,1022.87
2023-02-15T04:26:44.737Z,1022.86
2023-02-15T04:27:44.989Z,1022.83
2023-02-15T04:28:44.708Z,1022.87
2023-02-15T04:29:44.716Z,1022.84
2023-02-15T04:30:44.703Z,1022.81
2023-02-15T04:31:37.693Z,1022.79
2023-02-15T04:32:48.460Z,1022.82
2023-02-15T04:33:37.612Z,1022.85
2023-02-15T04:34:37.649Z,1022.88
2023-02-15T04:35:37.601Z,1022.83
2023-02-15T04:36:37.586Z,1022.81
2023-02-15T04:37:37.587Z,1022.77
2023-02-15T04:38:37.561Z,1022.78
2023-02-15T04:39:37.570Z,1022.82
2023-02-15T04:40:37.548Z,1022.72
2023-02-15T04:41:37.519Z,1022.71
2023-02-15T04:42:37.528Z,1022.79
2023-02-15T04:43:37.510Z,1022.80
2023-02-15T04:44:37.823Z,1022.73
2023-02-15T04:45:37.572Z,1022.71
2023-02-15T04:46:37.474Z,1022.69
2023-02-15T04:47:37.468Z,1022.71
2023-02-15T04:48:37.460Z,1022.68
2023-02-15T04:49:37.449Z,1022.66
2023-02-15T04:50:40.184Z,1022.66
2023-02-15T04:51:37.459Z,1022.66
2023-02-15T04:52:37.403Z,1022.62
2023-02-15T04:53:37.398Z,1022.67
2023-02-15T04:54:37.766Z,1022.67
2023-02-15T04:55:37.385Z,1022.69
2023-02-15T04:56:37.357Z,1022.64
2023-02-15T04:57:37.351Z,1022.57
2023-02-15T04:58:37.349Z,1022.58
2023-02-15T04:59:37.333Z,1022.59
2023-02-15T05:00:37.339Z,1022.57
2023-02-15T05:01:37.292Z,1022.60
2023-02-15T05:02:37.561Z,1022.56
2023-02-15T05:03:37.270Z,1022.55
2023-02-15T05:04:37.334Z,1022.52
2023-02-15T05:05:37.283Z,1022.54
2023-02-15T05:06:37.252Z,1022.49
2023-02-15T05:07:37.247Z,1022.55
2023-02-15T05:08:37.247Z,1022.55
2023-02-15T05:09:37.221Z,1022.61
2023-02-15T05:10:37.199Z,1022.62
2023-02-15T05:11:37.200Z,1022.65
2023-02-15T05:12:37.175Z,1022.61
2023-02-15T05:13:37.167Z,1022.60
2023-02-15T05:14:37.220Z,1022.65
2023-02-15T05:15:37.132Z,1022.61
2023-02-15T05:16:37.165Z,1022.62
2023-02-15T05:17:37.123Z,1022.64
2023-02-15T05:18:37.108Z,1022.66
2023-02-15T05:19:37.110Z,1022.68
2023-02-15T05:20:37.091Z,1022.69
2023-02-15T05:21:37.077Z,1022.65
2023-02-15T05:22:37.062Z,1022.69
2023-02-15T05:23:37.053Z,1022.65
2023-02-15T05:24:37.052Z,1022.67
2023-02-15T05:25:37.052Z,1022.65
2023-02-15T05:26:37.030Z,1022.67
2023-02-15T05:27:37.014Z,1022.59
2023-02-15T05:28:36.992Z,1022.63
2023-02-15T05:29:37.003Z,1022.64
2023-02-15T05:30:37.173Z,1022.66
2023-02-15T05:31:37.319Z,1022.62
2023-02-15T05:32:37.070Z,1022.66
2023-02-15T05:33:36.945Z,1022.61
2023-02-15T05:34:36.926Z,1022.60
2023-02-15T05:35:36.997Z,1022.55
2023-02-15T05:36:36.907Z,1022.59
2023-02-15T05:37:36.920Z,1022.62
2023-02-15T05:38:36.897Z,1022.59
2023-02-15T05:39:36.916Z,1022.58
2023-02-15T05:40:36.861Z,1022.56
2023-02-15T05:41:36.852Z,1022.57
2023-02-15T05:42:36.841Z,1022.59
2023-02-15T05:43:36.827Z,1022.55
2023-02-15T05:44:36.858Z,1022.61
2023-02-15T05:45:36.816Z,1022.65
2023-02-15T05:46:36.799Z,1022.63
2023-02-15T05:47:36.778Z,1022.60
2023-02-15T05:48:36.769Z,1022.63
2023-02-15T05:49:36.767Z,1022.67
2023-02-15T05:50:36.767Z,1022.69
2023-02-15T05:51:39.540Z,1022.72
2023-02-15T05:52:36.716Z,1022.69
2023-02-15T05:53:36.720Z,1022.63
2023-02-15T05:54:36.720Z,1022.60
2023-02-15T05:55:36.688Z,1022.62
2023-02-15T05:56:36.674Z,1022.65
2023-02-15T05:57:36.702Z,1022.68
2023-02-15T05:58:36.655Z,1022.68
2023-02-15T05:59:36.678Z,1022.70
2023-02-15T06:00:43.649Z,1022.70
2023-02-15T06:01:43.628Z,1022.66
2023-02-15T06:02:43.688Z,1022.69
2023-02-15T06:03:43.792Z,1022.69
2023-02-15T06:04:44.613Z,1022.65
2023-02-15T06:05:36.568Z,1022.62
2023-02-15T06:06:36.574Z,1022.59
2023-02-15T06:07:36.543Z,1022.59
2023-02-15T06:08:36.556Z,1022.61
2023-02-15T06:09:36.558Z,1022.60
2023-02-15T06:10:36.566Z,1022.65
2023-02-15T06:11:36.512Z,1022.72
2023-02-15T06:12:36.513Z,1022.71
2023-02-15T06:13:38.580Z,1022.70
2023-02-15T06:14:36.495Z,1022.69
2023-02-15T06:15:36.494Z,1022.69
2023-02-15T06:16:36.473Z,1022.62
2023-02-15T06:17:36.434Z,1022.62
2023-02-15T06:18:39.245Z,1022.63
2023-02-15T06:19:36.427Z,1022.64
2023-02-15T06:20:36.423Z,1022.57
2023-02-15T06:21:36.417Z,1022.59
2023-02-15T06:22:36.396Z,1022.54
2023-02-15T06:23:36.718Z,1022.51
2023-02-15T06:24:36.387Z,1022.51
2023-02-15T06:25:38.030Z,1022.53
2023-02-15T06:26:36.656Z,1022.54
2023-02-15T06:27:36.315Z,1022.57
2023-02-15T06:28:36.329Z,1022.52
2023-02-15T06:29:36.314Z,1022.52
2023-02-15T06:30:36.320Z,1022.57
2023-02-15T06:31:36.381Z,1022.58
2023-02-15T06:32:36.264Z,1022.58
2023-02-15T06:33:36.290Z,1022.56
2023-02-15T06:34:36.274Z,1022.55
2023-02-15T06:35:36.244Z,1022.59
2023-02-15T06:36:36.534Z,1022.57
2023-02-15T06:37:36.205Z,1022.51
2023-02-15T06:38:36.208Z,1022.48
2023-02-15T06:39:36.202Z,1022.51
2023-02-15T06:40:36.179Z,1022.54
2023-02-15T06:41:36.170Z,1022.50
2023-02-15T06:42:36.434Z,1022.52
2023-02-15T06:43:36.161Z,1022.50
2023-02-15T06:44:36.144Z,1022.52
2023-02-15T06:45:36.133Z,1022.53
2023-02-15T06:46:36.162Z,1022.54
2023-02-15T06:47:36.093Z,1022.55
2023-02-15T06:48:36.083Z,1022.55
2023-02-15T06:49:36.517Z,1022.59
2023-02-15T06:50:36.357Z,1022.57
2023-02-15T06:51:36.074Z,1022.58
2023-02-15T06:52:36.034Z,1022.59
2023-02-15T06:53:36.027Z,1022.56
2023-02-15T06:54:36.026Z,1022.56
2023-02-15T06:55:35.994Z,1022.59
2023-02-15T06:56:36.335Z,1022.60
2023-02-15T06:57:36.005Z,1022.60
2023-02-15T06:58:35.978Z,1022.58
2023-02-15T06:59:35.999Z,1022.62
2023-02-15T07:00:35.954Z,1022.62
2023-02-15T07:01:35.991Z,1022.64
2023-02-15T07:02:35.928Z,1022.62
2023-02-15T07:03:35.911Z,1022.60
2023-02-15T07:04:36.373Z,1022.62
2023-02-15T07:05:38.053Z,1022.64
2023-02-15T07:06:35.880Z,1022.68
2023-02-15T07:07:36.241Z,1022.66
2023-02-15T07:08:35.847Z,1022.78
2023-02-15T07:09:36.222Z,1022.70
2023-02-15T07:10:35.859Z,1022.70
2023-02-15T07:11:35.817Z,1022.80
2023-02-15T07:12:35.819Z,1022.80
2023-02-15T07:13:35.788Z,1022.79
2023-02-15T07:14:36.580Z,1022.85
2023-02-15T07:15:35.757Z,1022.84
2023-02-15T07:16:35.820Z,1022.91
2023-02-15T07:17:36.681Z,1022.96
2023-02-15T07:18:35.727Z,1022.92
2023-02-15T07:19:35.748Z,1022.90
2023-02-15T07:20:37.497Z,1022.94
2023-02-15T07:21:36.647Z,1022.97
2023-02-15T07:22:36.035Z,1023.01
2023-02-15T07:23:38.577Z,1023.02
2023-02-15T07:24:35.677Z,1023.12
2023-02-15T07:25:35.666Z,1023.18
2023-02-15T07:26:35.672Z,1023.15
2023-02-15T07:27:36.424Z,1023.15
2023-02-15T07:28:35.626Z,1023.22
2023-02-15T07:29:35.639Z,1023.26
2023-02-15T07:30:35.619Z,1023.27
2023-02-15T07:31:35.583Z,1023.29
2023-02-15T07:32:42.601Z,1023.28
2023-02-15T07:33:44.068Z,1023.29
2023-02-15T07:34:42.593Z,1023.32
2023-02-15T07:35:42.914Z,1023.34
2023-02-15T07:36:42.542Z,1023.34
2023-02-15T07:37:43.530Z,1023.55
2023-02-15T07:38:35.490Z,1023.55
2023-02-15T07:39:35.511Z,1023.54
2023-02-15T07:40:35.461Z,1023.60
2023-02-15T07:41:36.202Z,1023.63
2023-02-15T07:42:35.454Z,1023.63
2023-02-15T07:43:38.280Z,1023.68
2023-02-15T07:44:35.480Z,1023.89
2023-02-15T07:45:35.452Z,1023.93
2023-02-15T07:46:35.462Z,1023.96
2023-02-15T07:47:35.393Z,1023.99
2023-02-15T07:48:35.403Z,1024.01
2023-02-15T07:49:35.660Z,1024.03
2023-02-15T07:50:35.366Z,1024.22
2023-02-15T07:51:35.357Z,1024.25
2023-02-15T07:52:35.362Z,1024.27
2023-02-15T07:53:35.660Z,1024.28
2023-02-15T07:54:35.350Z,1024.32
2023-02-15T07:55:35.311Z,1024.36
2023-02-15T07:56:37.061Z,1024.38
2023-02-15T07:57:35.285Z,1024.58
2023-02-15T07:58:35.293Z,1024.60
2023-02-15T07:59:35.288Z,1024.62
2023-02-15T08:00:35.264Z,1024.65
2023-02-15T08:01:35.265Z,1024.69
2023-02-15T08:02:35.256Z,1024.69
2023-02-15T08:03:36.059Z,1024.71
2023-02-15T08:04:36.244Z,1024.73
2023-02-15T08:05:35.526Z,1024.76
2023-02-15T08:06:37.988Z,1024.93
2023-02-15T08:07:35.484Z,1024.98
2023-02-15T08:08:37.893Z,1025.01
2023-02-15T08:09:35.164Z,1025.01
2023-02-15T08:10:35.152Z,1025.05
2023-02-15T08:11:35.122Z,1025.09
2023-02-15T08:12:35.140Z,1025.14
2023-02-15T08:13:35.106Z,1025.16
2023-02-15T08:14:35.124Z,1025.16
2023-02-15T08:15:35.094Z,1025.16
2023-02-15T08:16:35.120Z,1025.36
2023-02-15T08:17:35.069Z,1025.39
2023-02-15T08:18:35.060Z,1025.41
2023-02-15T08:19:35.161Z,1025.44
2023-02-15T08:20:35.037Z,1025.46
2023-02-15T08:21:35.030Z,1025.46
2023-02-15T08:22:35.042Z,1025.51
2023-02-15T08:23:34.997Z,1025.54
2023-02-15T08:24:35.024Z,1025.55
2023-02-15T08:25:35.297Z,1025.56
2023-02-15T08:26:34.979Z,1025.59
2023-02-15T08:27:35.290Z,1025.83
2023-02-15T08:28:34.958Z,1025.88
2023-02-15T08:29:34.962Z,1025.96
2023-02-15T08:30:36.362Z,1026.00
2023-02-15T08:31:35.346Z,1026.22
2023-02-15T08:32:34.921Z,1026.22
2023-02-15T08:33:34.920Z,1026.21
2023-02-15T08:34:34.902Z,1026.24
2023-02-15T08:35:34.874Z,1026.25
2023-02-15T08:36:34.921Z,1026.24
2023-02-15T08:37:35.150Z,1026.27
2023-02-15T08:38:34.843Z,1026.33
2023-02-15T08:39:34.858Z,1026.35
2023-02-15T08:40:34.820Z,1026.39
2023-02-15T08:41:34.812Z,1026.44
2023-02-15T08:42:34.804Z,1026.65
2023-02-15T08:43:34.781Z,1026.70
2023-02-15T08:44:34.796Z,1026.72
2023-02-15T08:45:34.789Z,1026.76
2023-02-15T08:46:34.796Z,1026.75
2023-02-15T08:47:34.781Z,1026.78
2023-02-15T08:48:34.721Z,1026.84
2023-02-15T08:49:35.069Z,1027.05
2023-02-15T08:50:35.021Z,1027.08
2023-02-15T08:51:34.680Z,1027.11
2023-02-15T08:52:34.685Z,1027.17
2023-02-15T08:53:34.670Z,1027.20
2023-02-15T08:54:34.659Z,1027.23
2023-02-15T08:55:34.651Z,1027.24
2023-02-15T08:56:34.684Z,1027.27
2023-02-15T08:57:34.684Z,1027.27
2023-02-15T08:58:34.636Z,1027.34
2023-02-15T08:59:34.611Z,1027.54
2023-02-15T09:00:34.597Z,1027.59
2023-02-15T09:01:34.937Z,1027.65
2023-02-15T09:02:34.613Z,1027.69
2023-02-15T09:03:34.551Z,1027.69
2023-02-15T09:04:34.549Z,1027.68
2023-02-15T09:05:34.547Z,1027.65
2023-02-15T09:06:42.342Z,1027.68
2023-02-15T09:07:42.541Z,1027.73
2023-02-15T09:08:41.521Z,1027.77
2023-02-15T09:09:34.491Z,1027.79
2023-02-15T09:10:34.470Z,1027.81
2023-02-15T09:11:34.470Z,1027.82
2023-02-15T09:12:34.462Z,1027.85
2023-02-15T09:13:34.449Z,1027.85
2023-02-15T09:14:34.461Z,1027.81
2023-02-15T09:15:34.441Z,1027.84
2023-02-15T09:16:34.461Z,1028.05
2023-02-15T09:17:34.747Z,1028.12
2023-02-15T09:18:34.422Z,1028.12
2023-02-15T09:19:34.370Z,1028.15
2023-02-15T09:20:34.367Z,1028.13
2023-02-15T09:21:34.350Z,1028.17
2023-02-15T09:22:34.351Z,1028.21
2023-02-15T09:23:34.332Z,1028.29
2023-02-15T09:24:34.700Z,1028.31
2023-02-15T09:25:34.306Z,1028.38
2023-02-15T09:26:34.311Z,1028.41
2023-02-15T09:27:37.078Z,1028.61
2023-02-15T09:28:34.270Z,1028.71
2023-02-15T09:29:34.297Z,1028.78
2023-02-15T09:30:34.375Z,1028.82
2023-02-15T09:31:34.386Z,1028.83
2023-02-15T09:32:34.268Z,1028.87
2023-02-15T09:33:34.218Z,1028.85
2023-02-15T09:34:35.200Z,1028.90
2023-02-15T09:35:34.208Z,1028.94
2023-02-15T09:36:34.212Z,1029.00
2023-02-15T09:37:34.187Z,1029.03
2023-02-15T09:38:34.160Z,1029.02
2023-02-15T09:39:34.160Z,1029.07
2023-02-15T09:40:34.158Z,1029.13
2023-02-15T09:41:34.130Z,1029.37
2023-02-15T09:42:34.144Z,1029.43
2023-02-15T09:43:34.112Z,1029.47
2023-02-15T09:44:34.403Z,1029.48
2023-02-15T09:45:34.088Z,1029.54
2023-02-15T09:46:34.089Z,1029.57
2023-02-15T09:47:34.070Z,1029.65
2023-02-15T09:48:34.047Z,1029.72
2023-02-15T09:49:34.058Z,1029.80
2023-02-15T09:50:36.581Z,1029.88
2023-02-15T09:51:34.008Z,1029.93
2023-02-15T09:52:34.018Z,1030.00
2023-02-15T09:53:33.994Z,1030.00
2023-02-15T09:54:33.997Z,1030.09
2023-02-15T09:55:34.262Z,1030.11
2023-02-15T09:56:33.972Z,1030.19
2023-02-15T09:57:33.966Z,1030.20
2023-02-15T09:58:33.954Z,1030.27
2023-02-15T09:59:33.961Z,1030.33
2023-02-15T10:00:33.911Z,1030.41
2023-02-15T10:01:34.282Z,1030.41
2023-02-15T10:02:33.894Z,1030.43
2023-02-15T10:03:33.874Z,1030.51
2023-02-15T10:04:33.899Z,1030.65
2023-02-15T10:05:33.864Z,1030.75
2023-02-15T10:06:33.844Z,1030.83
2023-02-15T10:07:33.832Z,1030.91
2023-02-15T10:08:33.816Z,1030.95
2023-02-15T10:09:33.839Z,1031.08
2023-02-15T10:10:33.827Z,1031.20
2023-02-15T10:11:33.791Z,1031.26
2023-02-15T10:12:35.970Z,1031.36
2023-02-15T10:13:35.853Z,1031.41
2023-02-15T10:14:36.627Z,1031.46
2023-02-15T10:15:35.837Z,1031.57
2023-02-15T10:16:33.828Z,1031.62
2023-02-15T10:17:34.153Z,1031.56
2023-02-15T10:18:35.544Z,1031.59
2023-02-15T10:19:33.825Z,1031.59
2023-02-15T10:20:36.696Z,1031.59
2023-02-15T10:21:35.707Z,1031.67
2023-02-15T10:22:33.665Z,1031.73
2023-02-15T10:23:34.109Z,1031.81
2023-02-15T10:24:40.624Z,1031.89
2023-02-15T10:25:33.995Z,1031.97
2023-02-15T10:26:36.596Z,1031.97
2023-02-15T10:27:35.688Z,1032.00
2023-02-15T10:28:33.961Z,1031.99
2023-02-15T10:29:33.897Z,1032.09
2023-02-15T10:30:33.725Z,1032.21
2023-02-15T10:31:33.624Z,1032.33
2023-02-15T10:32:33.544Z,1032.46
2023-02-15T10:33:33.529Z,1032.60
2023-02-15T10:34:33.526Z,1032.75
2023-02-15T10:35:33.524Z,1032.81
2023-02-15T10:36:33.506Z,1032.83
2023-02-15T10:37:33.489Z,1032.85
2023-02-15T10:38:41.516Z,1032.85
2023-02-15T10:39:40.498Z,1032.85
2023-02-15T10:40:41.469Z,1033.02
2023-02-15T10:41:40.465Z,1033.06
2023-02-15T10:42:33.411Z,1033.10
2023-02-15T10:43:40.488Z,1033.27
2023-02-15T10:44:33.425Z,1033.31
2023-02-15T10:45:33.419Z,1033.32
2023-02-15T10:46:33.487Z,1033.32
2023-02-15T10:47:33.395Z,1033.35
2023-02-15T10:48:33.368Z,1033.53
2023-02-15T10:49:33.374Z,1033.55
2023-02-15T10:50:33.348Z,1033.57
2023-02-15T10:51:33.330Z,1033.59
2023-02-15T10:52:33.326Z,1033.77
2023-02-15T10:53:33.313Z,1033.79
2023-02-15T10:54:33.289Z,1033.80
2023-02-15T10:55:33.304Z,1033.82
2023-02-15T10:56:33.273Z,1033.83
2023-02-15T10:57:33.270Z,1034.02
2023-02-15T10:58:33.247Z,1034.05
2023-02-15T10:59:33.246Z,1034.08
2023-02-15T11:00:33.238Z,1034.27
2023-02-15T11:01:33.270Z,1034.28
2023-02-15T11:02:33.200Z,1034.29
2023-02-15T11:03:33.201Z,1034.30
2023-02-15T11:04:33.204Z,1034.29
2023-02-15T11:05:35.950Z,1034.29
2023-02-15T11:06:33.155Z,1034.31
2023-02-15T11:07:33.163Z,1034.35
2023-02-15T11:08:33.129Z,1034.50
2023-02-15T11:09:33.121Z,1034.29
2023-02-15T11:10:33.119Z,1034.25
2023-02-15T11:11:33.117Z,1034.30
2023-02-15T11:12:33.092Z,1034.10
2023-02-15T11:13:33.080Z,1034.06
2023-02-15T11:14:33.080Z,1034.06
2023-02-15T11:15:33.338Z,1033.90
2023-02-15T11:16:33.065Z,1033.73
2023-02-15T11:17:33.035Z,1033.60
2023-02-15T11:18:33.018Z,1033.37
2023-02-15T11:19:33.023Z,1033.05
2023-02-15T11:20:33.017Z,1032.42
2023-02-15T11:21:32.992Z,1032.45
2023-02-15T11:22:32.975Z,1032.39
2023-02-15T11:23:32.982Z,1032.19
2023-02-15T11:24:32.961Z,1032.01
2023-02-15T11:25:32.962Z,1031.94
2023-02-15T11:26:32.945Z,1031.90
2023-02-15T11:27:32.943Z,1031.61
2023-02-15T11:28:32.920Z,1031.60
2023-02-15T11:29:32.943Z,1031.58
2023-02-15T11:30:32.981Z,1031.62
2023-02-15T11:31:33.059Z,1031.55
2023-02-15T11:32:32.892Z,1031.29
2023-02-15T11:33:32.867Z,1030.99
2023-02-15T11:34:33.160Z,1031.00
2023-02-15T11:35:32.834Z,1030.46
2023-02-15T11:36:32.832Z,1030.28
2023-02-15T11:37:32.839Z,1030.04
2023-02-15T11:38:32.799Z,1029.67
2023-02-15T11:39:32.816Z,1029.38
2023-02-15T11:40:32.789Z,1029.01
2023-02-15T11:41:32.778Z,1028.71
2023-02-15T11:42:32.748Z,1028.56
2023-02-15T11:43:32.747Z,1028.48
2023-02-15T11:44:32.802Z,1028.60
2023-02-15T11:45:33.084Z,1028.56
2023-02-15T11:46:33.295Z,1028.57
2023-02-15T11:47:32.707Z,1028.24
2023-02-15T11:48:32.696Z,1028.07
2023-02-15T11:49:32.744Z,1027.59
2023-02-15T11:50:32.673Z,1026.92
2023-02-15T11:51:32.650Z,1026.76
2023-02-15T11:52:32.650Z,1026.46
2023-02-15T11:53:32.630Z,1026.37
2023-02-15T11:54:32.635Z,1025.96
2023-02-15T11:55:32.620Z,1025.59
2023-02-15T11:56:32.600Z,1025.12
2023-02-15T11:57:32.574Z,1024.36
2023-02-15T11:58:32.619Z,1023.81
2023-02-15T11:59:32.572Z,1023.03
2023-02-15T12:00:32.589Z,1022.55
2023-02-15T12:01:32.561Z,1022.23
2023-02-15T12:02:32.584Z,1021.86
2023-02-15T12:03:32.521Z,1021.68
2023-02-15T12:04:32.510Z,1020.24
2023-02-15T12:05:32.499Z,1019.71